Village Station, Georgia
Current Conditions -  °F | °C
As of 11:58 AM on Friday 31 Oct 2014 (Local Time) from KSVN Reporting Station
Clear Clear  
Wind Chill: 71°   Ceiling: Unl
Heat Index: 71°   Visibility: 10mi
Dew Point: 49°   Wind: 7mph
Humidity: 46%   Direction: 330°NNW
Pressure: 29.86"   Gusts: NA
Location:  31.9252°N, 81.0354°W
Report Text: KSVN 311558Z AUTO 33006KT 10SM CLR 21/09 A2986 RMK AO2 SLP114 T02140094
Loading
Personal Weather Stations






























Interactive Weather Map
Tropical Storm Tracking
New forecast layout! Learn more

10-Day Weather Forecast

Advertisements
Track Severe Weather on mobile